createdAt,value
2023-05-05T00:01:22.287Z,8.09
2023-05-05T00:03:49.220Z,8.08
2023-05-05T00:06:16.182Z,8.10
2023-05-05T00:08:42.977Z,8.07
2023-05-05T00:11:09.710Z,8.08
2023-05-05T00:13:36.487Z,8.08
2023-05-05T00:16:03.307Z,8.08
2023-05-05T00:18:30.332Z,8.06
2023-05-05T00:20:57.143Z,8.04
2023-05-05T00:23:23.843Z,7.98
2023-05-05T00:25:51.093Z,7.98
2023-05-05T00:28:17.687Z,7.96
2023-05-05T00:30:44.639Z,7.84
2023-05-05T00:33:11.397Z,7.73
2023-05-05T00:35:38.092Z,7.72
2023-05-05T00:38:05.101Z,7.76
2023-05-05T00:40:31.948Z,7.81
2023-05-05T00:42:59.765Z,7.83
2023-05-05T00:45:26.851Z,7.87
2023-05-05T00:48:01.247Z,7.91
2023-05-05T00:50:30.272Z,7.92
2023-05-05T00:53:01.070Z,7.92
2023-05-05T00:55:32.518Z,7.90
2023-05-05T00:58:00.382Z,7.82
2023-05-05T01:00:27.978Z,7.66
2023-05-05T01:02:55.701Z,7.48
2023-05-05T01:05:24.096Z,7.43
2023-05-05T01:08:19.506Z,7.47
2023-05-05T01:10:52.990Z,7.47
2023-05-05T01:13:48.123Z,7.41
2023-05-05T01:16:25.941Z,7.37
2023-05-05T01:19:04.641Z,7.33
2023-05-05T01:21:38.538Z,7.30
2023-05-05T01:24:26.410Z,7.24
2023-05-05T01:27:30.551Z,7.19
2023-05-05T01:30:06.437Z,7.16
2023-05-05T01:32:38.698Z,7.12
2023-05-05T01:35:47.224Z,7.20
2023-05-05T01:38:19.354Z,7.24
2023-05-05T01:40:51.638Z,7.28
2023-05-05T01:43:21.076Z,7.27
2023-05-05T01:45:49.069Z,7.29
2023-05-05T01:48:19.636Z,7.24
2023-05-05T01:50:48.356Z,7.31
2023-05-05T01:53:17.635Z,7.30
2023-05-05T01:55:46.284Z,7.26
2023-05-05T01:58:16.441Z,7.17
2023-05-05T02:00:44.534Z,7.04
2023-05-05T02:03:14.064Z,6.99
2023-05-05T02:05:42.003Z,6.92
2023-05-05T02:08:10.941Z,6.93
2023-05-05T02:10:41.069Z,6.91
2023-05-05T02:13:10.538Z,7.00
2023-05-05T02:15:39.311Z,7.03
2023-05-05T02:18:07.359Z,7.01
2023-05-05T02:20:37.410Z,6.90
2023-05-05T02:23:06.374Z,6.89
2023-05-05T02:25:40.201Z,6.78
2023-05-05T02:28:15.465Z,6.81
2023-05-05T02:30:43.487Z,6.73
2023-05-05T02:33:11.757Z,6.69
2023-05-05T02:35:41.785Z,6.67
2023-05-05T02:38:17.895Z,6.69
2023-05-05T02:40:55.326Z,6.66
2023-05-05T02:43:37.843Z,6.66
2023-05-05T02:46:06.783Z,6.62
2023-05-05T02:48:42.556Z,6.62
2023-05-05T02:51:11.323Z,6.61
2023-05-05T02:53:41.774Z,6.59
2023-05-05T02:56:32.785Z,6.59
2023-05-05T02:59:16.495Z,6.58
2023-05-05T03:02:59.914Z,6.59
2023-05-05T03:06:25.788Z,6.57
2023-05-05T03:10:03.255Z,6.58
2023-05-05T03:13:37.871Z,6.58
2023-05-05T03:16:56.710Z,6.54
2023-05-05T03:20:15.360Z,6.47
2023-05-05T03:23:36.651Z,6.39
2023-05-05T03:26:57.758Z,6.31
2023-05-05T03:30:21.366Z,6.30
2023-05-05T03:33:41.591Z,6.25
2023-05-05T03:36:58.857Z,6.16
2023-05-05T03:40:16.321Z,6.16
2023-05-05T03:43:29.030Z,6.16
2023-05-05T03:46:46.365Z,6.12
2023-05-05T03:50:06.745Z,6.06
2023-05-05T03:53:24.537Z,6.10
2023-05-05T03:56:42.056Z,6.18
2023-05-05T03:59:59.794Z,6.20
2023-05-05T04:03:17.663Z,6.22
2023-05-05T04:06:35.386Z,6.21
2023-05-05T04:09:52.832Z,6.23
2023-05-05T04:13:10.960Z,6.26
2023-05-05T04:16:29.560Z,6.27
2023-05-05T04:19:47.038Z,6.29
2023-05-05T04:23:04.491Z,6.30
2023-05-05T04:26:22.136Z,6.38
2023-05-05T04:29:39.977Z,6.41
2023-05-05T04:32:58.255Z,6.42
2023-05-05T04:36:15.846Z,6.47
2023-05-05T04:39:33.203Z,6.54
2023-05-05T04:42:51.024Z,6.66
2023-05-05T04:46:08.449Z,6.79
2023-05-05T04:49:29.370Z,6.93
2023-05-05T04:52:46.869Z,7.06
2023-05-05T04:56:04.461Z,7.14
2023-05-05T04:59:21.895Z,7.18
2023-05-05T05:02:39.244Z,7.28
2023-05-05T05:05:56.811Z,7.39
2023-05-05T05:09:14.189Z,7.52
2023-05-05T05:12:31.550Z,7.62
2023-05-05T05:15:48.827Z,7.75
2023-05-05T05:18:20.632Z,7.86
2023-05-05T05:21:39.569Z,7.91
2023-05-05T05:24:56.901Z,8.08
2023-05-05T05:28:14.564Z,8.21
2023-05-05T05:31:37.801Z,8.39
2023-05-05T05:34:55.401Z,8.57
2023-05-05T05:38:12.730Z,8.72
2023-05-05T05:41:30.123Z,8.94
2023-05-05T05:44:48.271Z,9.10
2023-05-05T05:48:05.986Z,9.23
2023-05-05T05:51:23.626Z,9.37
2023-05-05T05:54:41.903Z,9.57
2023-05-05T05:58:00.208Z,9.74
2023-05-05T06:01:18.179Z,9.81
2023-05-05T06:04:36.176Z,9.99
2023-05-05T06:07:53.686Z,10.16
2023-05-05T06:11:12.750Z,10.32
2023-05-05T06:14:30.199Z,10.49
2023-05-05T06:17:47.648Z,10.69
2023-05-05T06:21:05.226Z,10.86
2023-05-05T06:24:22.527Z,11.06
2023-05-05T06:27:39.899Z,11.28
2023-05-05T06:30:57.716Z,11.41
2023-05-05T06:34:14.921Z,11.64
2023-05-05T06:37:32.438Z,11.85
2023-05-05T06:40:50.094Z,11.94
2023-05-05T06:44:07.645Z,12.21
2023-05-05T06:47:25.224Z,12.32
2023-05-05T06:50:42.500Z,12.44
2023-05-05T06:53:59.706Z,12.58
2023-05-05T06:57:17.006Z,12.86
2023-05-05T07:00:34.292Z,13.07
2023-05-05T07:03:54.706Z,13.25
2023-05-05T07:07:12.355Z,13.68
2023-05-05T07:10:29.962Z,13.94
2023-05-05T07:13:49.342Z,14.13
2023-05-05T07:17:06.598Z,14.33
2023-05-05T07:20:24.347Z,14.30
2023-05-05T07:23:41.789Z,14.48
2023-05-05T07:26:59.334Z,14.70
2023-05-05T07:30:18.824Z,15.00
2023-05-05T07:33:37.106Z,15.31
2023-05-05T07:36:56.396Z,16.02
2023-05-05T07:40:13.862Z,16.30
2023-05-05T07:43:31.274Z,16.63
2023-05-05T07:46:48.582Z,17.09
2023-05-05T07:50:06.604Z,17.40
2023-05-05T07:53:24.346Z,17.81
2023-05-05T07:56:41.695Z,17.88
2023-05-05T07:59:58.968Z,18.26
2023-05-05T08:03:16.289Z,18.47
2023-05-05T08:06:33.646Z,18.71
2023-05-05T08:09:51.373Z,19.07
2023-05-05T08:13:08.633Z,19.44
2023-05-05T08:16:26.099Z,19.93
2023-05-05T08:19:43.417Z,20.15
2023-05-05T08:23:00.696Z,20.19
2023-05-05T08:26:17.931Z,20.36
2023-05-05T08:29:35.180Z,20.59
2023-05-05T08:32:52.528Z,20.77
2023-05-05T08:36:09.940Z,21.12
2023-05-05T08:39:27.257Z,21.48
2023-05-05T08:42:47.573Z,21.83
2023-05-05T08:46:05.579Z,21.87
2023-05-05T08:49:25.437Z,21.78
2023-05-05T08:52:44.821Z,21.71
2023-05-05T08:56:09.100Z,21.82
2023-05-05T08:59:30.585Z,21.77
2023-05-05T09:02:51.406Z,21.94
2023-05-05T09:06:09.666Z,22.21
2023-05-05T09:09:30.420Z,22.65
2023-05-05T09:12:51.226Z,22.40
2023-05-05T09:16:08.722Z,22.74
2023-05-05T09:19:28.057Z,23.05
2023-05-05T09:22:46.289Z,23.11
2023-05-05T09:26:06.194Z,23.37
2023-05-05T09:29:23.473Z,23.53
2023-05-05T09:32:54.448Z,23.73
2023-05-05T09:36:12.846Z,23.93
2023-05-05T09:39:30.475Z,24.09
2023-05-05T09:42:48.008Z,24.45
2023-05-05T09:46:08.525Z,24.46
2023-05-05T09:49:27.063Z,24.70
2023-05-05T09:53:01.589Z,24.94
2023-05-05T09:56:19.955Z,24.14
2023-05-05T09:59:36.572Z,24.44
2023-05-05T10:03:03.169Z,25.01
2023-05-05T10:06:15.632Z,25.37
2023-05-05T10:09:32.781Z,25.61
2023-05-05T10:12:51.157Z,25.79
2023-05-05T10:16:07.855Z,25.95
2023-05-05T10:19:16.745Z,25.63
2023-05-05T10:22:24.727Z,26.03
2023-05-05T10:25:35.328Z,26.29
2023-05-05T10:28:45.744Z,26.68
2023-05-05T10:32:10.236Z,26.55
2023-05-05T10:35:29.639Z,26.51
2023-05-05T10:38:31.587Z,26.69
2023-05-05T10:41:28.133Z,26.26
2023-05-05T10:44:33.250Z,26.55
2023-05-05T10:47:32.164Z,26.45
2023-05-05T10:50:55.949Z,26.38
2023-05-05T10:54:03.221Z,26.60
2023-05-05T10:57:02.757Z,26.81
2023-05-05T11:00:08.817Z,27.05
2023-05-05T11:03:16.731Z,27.32
2023-05-05T11:06:31.280Z,27.15
2023-05-05T11:09:56.969Z,26.95
2023-05-05T11:13:00.020Z,27.28
2023-05-05T11:15:55.537Z,27.30
2023-05-05T11:18:50.756Z,26.78
2023-05-05T11:21:57.735Z,27.10
2023-05-05T11:24:49.729Z,27.42
2023-05-05T11:28:09.457Z,27.94
2023-05-05T11:31:19.499Z,28.16
2023-05-05T11:34:23.886Z,27.52
2023-05-05T11:37:17.777Z,27.16
2023-05-05T11:40:29.762Z,27.15
2023-05-05T11:43:31.021Z,27.14
2023-05-05T11:46:37.445Z,27.44
2023-05-05T11:49:29.119Z,27.85
2023-05-05T11:52:23.637Z,28.17
2023-05-05T11:55:19.099Z,28.50
2023-05-05T11:58:17.635Z,28.82
2023-05-05T12:01:07.493Z,28.78
2023-05-05T12:03:57.429Z,28.86
2023-05-05T12:06:49.168Z,29.16
2023-05-05T12:09:42.771Z,29.11
2023-05-05T12:12:37.328Z,29.16
2023-05-05T12:15:28.298Z,29.40
2023-05-05T12:18:21.173Z,29.23
2023-05-05T12:21:16.754Z,28.84
2023-05-05T12:24:02.816Z,28.72
2023-05-05T12:26:52.764Z,28.95
2023-05-05T12:29:45.412Z,28.62
2023-05-05T12:32:40.697Z,28.42
2023-05-05T12:35:29.671Z,28.36
2023-05-05T12:38:17.754Z,28.66
2023-05-05T12:41:09.971Z,28.45
2023-05-05T12:44:03.095Z,28.21
2023-05-05T12:46:54.710Z,28.16
2023-05-05T12:49:51.142Z,28.18
2023-05-05T12:52:45.258Z,28.13
2023-05-05T12:55:38.015Z,28.06
2023-05-05T12:58:32.686Z,27.98
2023-05-05T13:01:30.623Z,28.50
2023-05-05T13:04:20.232Z,28.50
2023-05-05T13:07:10.682Z,28.35
2023-05-05T13:10:11.660Z,28.49
2023-05-05T13:12:40.371Z,28.59
2023-05-05T13:15:10.915Z,28.68
2023-05-05T13:17:41.067Z,28.27
2023-05-05T13:20:14.186Z,28.55
2023-05-05T13:22:44.370Z,28.65
2023-05-05T13:25:21.013Z,28.59
2023-05-05T13:27:48.176Z,28.70
2023-05-05T13:30:15.598Z,28.86
2023-05-05T13:32:42.338Z,28.91
2023-05-05T13:35:09.718Z,28.75
2023-05-05T13:37:37.003Z,28.70
2023-05-05T13:40:04.738Z,28.70
2023-05-05T13:42:31.694Z,28.85
2023-05-05T13:44:58.414Z,28.13
2023-05-05T13:47:25.535Z,28.25
2023-05-05T13:49:52.458Z,27.95
2023-05-05T13:52:19.150Z,27.75
2023-05-05T13:54:45.910Z,27.76
2023-05-05T13:57:12.692Z,27.95
2023-05-05T13:59:39.504Z,27.82
2023-05-05T14:02:07.746Z,27.93
2023-05-05T14:04:34.650Z,28.00
2023-05-05T14:07:01.440Z,28.16
2023-05-05T14:09:28.196Z,28.09
2023-05-05T14:11:54.942Z,28.32
2023-05-05T14:14:21.758Z,28.37
2023-05-05T14:16:50.225Z,28.46
2023-05-05T14:19:17.326Z,28.62
2023-05-05T14:21:44.054Z,28.61
2023-05-05T14:24:10.906Z,28.23
2023-05-05T14:26:37.702Z,28.02
2023-05-05T14:29:04.390Z,28.11
2023-05-05T14:31:31.109Z,28.53
2023-05-05T14:33:57.895Z,28.44
2023-05-05T14:36:24.637Z,28.50
2023-05-05T14:38:51.399Z,28.67
2023-05-05T14:41:18.201Z,28.35
2023-05-05T14:43:44.965Z,28.06
2023-05-05T14:46:11.702Z,27.86
2023-05-05T14:48:38.571Z,27.78
2023-05-05T14:51:05.350Z,28.05
2023-05-05T14:53:32.106Z,28.29
2023-05-05T14:55:58.840Z,28.44
2023-05-05T14:58:25.555Z,28.12
2023-05-05T15:00:55.106Z,27.73
2023-05-05T15:03:21.942Z,27.47
2023-05-05T15:05:48.697Z,27.36
2023-05-05T15:08:15.619Z,27.11
2023-05-05T15:10:42.449Z,27.33
2023-05-05T15:13:09.391Z,27.08
2023-05-05T15:15:36.141Z,26.95
2023-05-05T15:18:02.990Z,26.98
2023-05-05T15:20:29.841Z,26.99
2023-05-05T15:22:56.988Z,27.16
2023-05-05T15:25:23.773Z,27.48
2023-05-05T15:27:50.605Z,27.60
2023-05-05T15:30:17.403Z,27.40
2023-05-05T15:32:44.153Z,27.34
2023-05-05T15:35:10.943Z,27.51
2023-05-05T15:37:37.916Z,27.23
2023-05-05T15:40:07.912Z,27.04
2023-05-05T15:42:34.851Z,27.36
2023-05-05T15:45:01.999Z,27.28
2023-05-05T15:47:28.739Z,27.01
2023-05-05T15:49:55.493Z,26.84
2023-05-05T15:52:22.547Z,26.61
2023-05-05T15:54:49.248Z,26.40
2023-05-05T15:57:16.423Z,26.37
2023-05-05T15:59:43.132Z,26.36
2023-05-05T16:02:09.885Z,26.52
2023-05-05T16:04:36.678Z,26.47
2023-05-05T16:07:03.484Z,26.41
2023-05-05T16:09:30.468Z,26.32
2023-05-05T16:11:57.298Z,26.08
2023-05-05T16:14:24.207Z,26.39
2023-05-05T16:16:51.056Z,26.28
2023-05-05T16:19:18.141Z,26.37
2023-05-05T16:21:45.007Z,26.48
2023-05-05T16:24:16.127Z,26.95
2023-05-05T16:26:43.717Z,27.19
2023-05-05T16:29:11.172Z,26.96
2023-05-05T16:31:38.303Z,27.07
2023-05-05T16:34:05.403Z,27.57
2023-05-05T16:36:32.239Z,27.80
2023-05-05T16:38:58.972Z,27.74
2023-05-05T16:41:28.674Z,28.03
2023-05-05T16:43:55.485Z,28.19
2023-05-05T16:46:22.253Z,27.87
2023-05-05T16:48:49.003Z,27.83
2023-05-05T16:51:15.724Z,27.55
2023-05-05T16:53:42.444Z,27.06
2023-05-05T16:56:12.854Z,27.14
2023-05-05T16:58:40.505Z,27.11
2023-05-05T17:01:07.204Z,27.15
2023-05-05T17:03:33.901Z,26.97
2023-05-05T17:06:00.864Z,27.01
2023-05-05T17:08:27.868Z,27.17
2023-05-05T17:10:54.680Z,27.38
2023-05-05T17:13:23.121Z,27.24
2023-05-05T17:15:50.631Z,26.99
2023-05-05T17:18:20.286Z,27.01
2023-05-05T17:20:47.313Z,26.74
2023-05-05T17:23:14.737Z,26.53
2023-05-05T17:25:41.839Z,26.12
2023-05-05T17:28:08.782Z,25.57
2023-05-05T17:30:37.719Z,25.28
2023-05-05T17:33:04.759Z,24.59
2023-05-05T17:35:31.863Z,24.11
2023-05-05T17:37:58.756Z,23.51
2023-05-05T17:40:25.812Z,23.10
2023-05-05T17:42:52.984Z,22.66
2023-05-05T17:45:21.943Z,22.25
2023-05-05T17:47:50.112Z,21.99
2023-05-05T17:50:17.389Z,21.81
2023-05-05T17:52:45.334Z,21.63
2023-05-05T17:55:12.847Z,21.45
2023-05-05T17:57:42.005Z,21.24
2023-05-05T18:00:09.940Z,21.10
2023-05-05T18:02:41.369Z,20.97
2023-05-05T18:05:13.311Z,20.85
2023-05-05T18:07:50.370Z,20.71
2023-05-05T18:10:23.665Z,20.50
2023-05-05T18:12:55.103Z,20.42
2023-05-05T18:15:32.004Z,20.24
2023-05-05T18:18:24.888Z,20.11
2023-05-05T18:21:04.603Z,19.96
2023-05-05T18:23:57.335Z,19.86
2023-05-05T18:26:52.761Z,19.75
2023-05-05T18:29:35.187Z,19.68
2023-05-05T18:32:17.753Z,19.56
2023-05-05T18:35:01.484Z,19.47
2023-05-05T18:37:52.368Z,19.36
2023-05-05T18:40:39.777Z,19.25
2023-05-05T18:43:25.191Z,19.11
2023-05-05T18:46:14.318Z,19.00
2023-05-05T18:49:03.311Z,18.90
2023-05-05T18:51:44.757Z,18.78
2023-05-05T18:54:29.031Z,18.71
2023-05-05T18:57:16.310Z,18.65
2023-05-05T19:00:05.168Z,18.58
2023-05-05T19:02:54.497Z,18.50
2023-05-05T19:05:48.181Z,18.43
2023-05-05T19:08:44.207Z,18.36
2023-05-05T19:11:41.813Z,18.27
2023-05-05T19:14:33.977Z,18.15
2023-05-05T19:17:32.428Z,18.11
2023-05-05T19:20:30.776Z,18.03
2023-05-05T19:23:27.154Z,17.93
2023-05-05T19:26:28.241Z,17.84
2023-05-05T19:29:28.607Z,17.73
2023-05-05T19:32:31.396Z,17.67
2023-05-05T19:35:35.672Z,17.61
2023-05-05T19:38:36.703Z,17.53
2023-05-05T19:41:35.410Z,17.47
2023-05-05T19:44:36.409Z,17.41
2023-05-05T19:47:31.528Z,17.32
2023-05-05T19:50:30.822Z,17.28
2023-05-05T19:53:28.073Z,17.23
2023-05-05T19:56:36.544Z,17.17
2023-05-05T19:59:52.116Z,17.08
2023-05-05T20:03:10.140Z,16.96
2023-05-05T20:06:28.352Z,16.87
2023-05-05T20:09:46.481Z,16.76
2023-05-05T20:13:04.756Z,16.69
2023-05-05T20:16:24.330Z,16.58
2023-05-05T20:19:42.491Z,16.49
2023-05-05T20:23:01.237Z,16.40
2023-05-05T20:26:19.381Z,16.36
2023-05-05T20:29:37.900Z,16.27
2023-05-05T20:32:57.270Z,16.21
2023-05-05T20:36:15.921Z,16.14
2023-05-05T20:39:34.222Z,16.07
2023-05-05T20:42:52.035Z,16.03
2023-05-05T20:46:11.514Z,16.00
2023-05-05T20:49:30.811Z,15.92
2023-05-05T20:52:49.613Z,15.84
2023-05-05T20:56:08.695Z,15.75
2023-05-05T20:59:28.227Z,15.63
2023-05-05T21:02:47.823Z,15.53
2023-05-05T21:06:05.555Z,15.43
2023-05-05T21:09:23.321Z,15.39
2023-05-05T21:12:41.451Z,15.37
2023-05-05T21:15:59.073Z,15.33
2023-05-05T21:19:16.763Z,15.24
2023-05-05T21:22:34.220Z,15.21
2023-05-05T21:26:11.139Z,15.16
2023-05-05T21:29:28.375Z,15.13
2023-05-05T21:32:45.747Z,15.07
2023-05-05T21:36:03.319Z,15.09
2023-05-05T21:39:21.024Z,15.06
2023-05-05T21:42:38.605Z,14.98
2023-05-05T21:46:02.836Z,15.05
2023-05-05T21:49:20.689Z,15.13
2023-05-05T21:52:38.268Z,15.10
2023-05-05T21:55:55.801Z,14.76
2023-05-05T21:59:15.264Z,14.54
2023-05-05T22:02:33.960Z,14.42
2023-05-05T22:05:51.338Z,14.35
2023-05-05T22:09:09.695Z,14.37
2023-05-05T22:12:27.061Z,14.45
2023-05-05T22:15:47.051Z,14.47
2023-05-05T22:19:04.834Z,14.47
2023-05-05T22:22:22.017Z,14.49
2023-05-05T22:25:39.260Z,14.46
2023-05-05T22:28:57.142Z,14.43
2023-05-05T22:32:14.378Z,14.35
2023-05-05T22:35:32.114Z,14.33
2023-05-05T22:38:49.649Z,14.24
2023-05-05T22:42:06.961Z,14.12
2023-05-05T22:45:24.164Z,14.11
2023-05-05T22:48:41.507Z,14.05
2023-05-05T22:51:58.713Z,13.99
2023-05-05T22:55:16.149Z,13.92
2023-05-05T22:58:33.460Z,13.84
2023-05-05T23:01:50.671Z,13.74
2023-05-05T23:05:08.233Z,13.70
2023-05-05T23:08:25.942Z,13.63
2023-05-05T23:11:43.650Z,13.60
2023-05-05T23:15:00.974Z,13.53
2023-05-05T23:18:18.232Z,13.24
2023-05-05T23:21:42.058Z,13.18
2023-05-05T23:25:10.049Z,13.10
2023-05-05T23:28:28.723Z,12.97
2023-05-05T23:31:46.282Z,12.95
2023-05-05T23:35:04.385Z,12.86
2023-05-05T23:38:21.836Z,12.70
2023-05-05T23:41:39.033Z,12.49
2023-05-05T23:44:56.316Z,12.37
2023-05-05T23:48:13.561Z,12.35
2023-05-05T23:51:31.474Z,12.25
2023-05-05T23:54:48.788Z,12.21
2023-05-05T23:58:06.182Z,12.19
